Thomson Majesty — 9HA2188 — position and weather

sailwx.info

Track history (hours):
 
Tides and Currents Weather Stations Pressure Air Temp Water Temp Dewpoint Dewpoint Depression Visibility Wind Speed Wind Dir Waves Ship Positions

Thomson Majesty

Last reported at 2016-Dec-03 13:27 UTC. Time now 2016-Dec-03 13:43 UTC.
Position N 28°08' W 015°25'.

Length 207 m; draft 6.2 m.

Type: Ship. MMSI: 248124000.

Date/timePositionNaut miles runAvg speedWind from/ knotsBaromVisibWave heightAir tempDewpointWater temp
2016-Dec-03 13:27N 28°08' W 015°25'0 0.0
2016-Dec-03 12:27N 28°08' W 015°25'0 0.0
2016-Dec-03 11:27N 28°08' W 015°25'0 0.0
2016-Dec-03 10:24N 28°08' W 015°25'0 0.0
2016-Dec-03 09:30N 28°08' W 015°25'0 0.0
2016-Dec-03 08:30N 28°08' W 015°25'0 0.0
2016-Dec-03 07:33N 28°08' W 015°25'6 5.6
2016-Dec-03 06:33N 28°12' W 015°21'1110.6
2016-Dec-03 05:33N 28°22' W 015°17'1110.9
2016-Dec-03 04:33N 28°28' W 015°27'1110.7
2016-Dec-03 03:33N 28°34' W 015°38'1110.6
2016-Dec-03 02:33N 28°28' W 015°47'1010.3
2016-Dec-03 01:33N 28°24' W 015°59'1211.8
2016-Dec-03 00:33N 28°28' W 016°11'3 2.5
2016-Dec-02 23:23N 28°28' W 016°15'0 0.0
2016-Dec-02 21:26N 28°28' W 016°15'0 0.0
2016-Dec-02 18:29N 28°28' W 016°15'0 0.0
2016-Dec-02 17:29N 28°28' W 016°15'0 0.0
2016-Dec-02 16:32N 28°28' W 016°15'0 0.0
2016-Dec-02 15:32N 28°28' W 016°15'0 0.0
2016-Dec-02 14:32N 28°28' W 016°15'0 0.0
2016-Dec-02 13:32N 28°28' W 016°15'0 0.0
2016-Dec-02 12:32N 28°28' W 016°15'0 0.0
2016-Dec-02 11:32N 28°28' W 016°15'0 0.0
2016-Dec-02 10:32N 28°28' W 016°15'0 0.0
2016-Dec-02 09:23N 28°28' W 016°15'0 0.0
2016-Dec-02 08:23N 28°28' W 016°15'0 0.0
2016-Dec-02 07:23N 28°28' W 016°15'0 0.0
2016-Dec-02 06:26N 28°28' W 016°15'0 0.0
2016-Dec-02 05:26N 28°28' W 016°15'8 6.1
2016-Dec-02 04:08N 28°24' W 016°07'610.6
2016-Dec-02 03:33N 28°20' W 016°01'9 8.6
2016-Dec-02 02:33N 28°12' W 016°03'1111.1
2016-Dec-02 01:33N 28°03' W 016°11'1411.3
2016-Dec-02 00:17N 27°52' W 016°22'1011.1
2016-Dec-01 23:25N 27°47' W 016°31'  
2016-Nov-27 05:33N 29°02' W 015°42'10 9.9
2016-Nov-27 04:33N 28°53' W 015°38'9 9.5
2016-Nov-27 03:34N 28°44' W 015°35'10 9.7
2016-Nov-27 02:33N 28°35' W 015°31'10 9.9
2016-Nov-27 01:33N 28°25' W 015°27'9 8.5
2016-Nov-27 00:33N 28°17' W 015°24'1010.1
2016-Nov-26 23:34N 28°07' W 015°23'2 2.3
2016-Nov-26 22:32N 28°08' W 015°25'0 0.0
2016-Nov-26 21:32N 28°08' W 015°25'0 0.0
2016-Nov-26 20:32N 28°08' W 015°25'0 0.0
2016-Nov-26 19:32N 28°08' W 015°25'0 0.0
2016-Nov-26 18:32N 28°08' W 015°25'0 0.0
2016-Nov-26 17:32N 28°08' W 015°25'0 0.0
2016-Nov-26 16:32N 28°08' W 015°25'0 0.0
2016-Nov-26 15:32N 28°08' W 015°25'0 0.0
2016-Nov-26 14:32N 28°08' W 015°25'0 0.0
2016-Nov-26 13:32N 28°08' W 015°25'0 0.0
2016-Nov-26 12:32N 28°08' W 015°25'0 0.0
2016-Nov-26 11:32N 28°08' W 015°25'0 0.0
2016-Nov-26 10:32N 28°08' W 015°25'0 0.0
2016-Nov-26 09:32N 28°08' W 015°25'0 0.0
2016-Nov-26 08:32N 28°08' W 015°25'0 0.3
2016-Nov-26 07:33N 28°08' W 015°25'5 5.5
2016-Nov-26 06:33N 28°07' W 015°19'1312.9
2016-Nov-26 05:33N 28°20' W 015°17'1211.8
2016-Nov-26 04:33N 28°28' W 015°27'1212.5
2016-Nov-26 03:33N 28°34' W 015°39'1111.4
2016-Nov-26 02:33N 28°26' W 015°48'1010.1
2016-Nov-26 01:33N 28°23' W 015°59'1313.0
2016-Nov-26 00:33N 28°28' W 016°13'2 1.7
2016-Nov-25 23:28N 28°28' W 016°15'0 0.0
2016-Nov-25 22:31N 28°28' W 016°15'0 0.0
2016-Nov-25 20:28N 28°28' W 016°15'0 0.0
2016-Nov-25 19:31N 28°28' W 016°15'0 0.0
2016-Nov-25 18:16N 28°28' W 016°15'0 0.0
2016-Nov-25 17:22N 28°28' W 016°15'0 0.0
2016-Nov-25 15:22N 28°28' W 016°15'0 0.0
2016-Nov-25 14:25N 28°28' W 016°15'0 0.0
2016-Nov-25 13:25N 28°28' W 016°15'0 0.0
2016-Nov-25 12:25N 28°28' W 016°15'0 0.0
2016-Nov-25 11:25N 28°28' W 016°15'0 0.0
2016-Nov-25 10:25N 28°28' W 016°15'0 0.0
2016-Nov-25 09:28N 28°28' W 016°15'0 0.0
2016-Nov-25 08:31N 28°28' W 016°15'0 0.0
2016-Nov-25 07:31N 28°28' W 016°15'0 0.0
2016-Nov-25 02:19N 28°28' W 016°15'0 0.0
2016-Nov-25 01:19N 28°28' W 016°15'0 0.0
2016-Nov-24 20:28N 28°28' W 016°15'0 0.0
2016-Nov-24 19:10N 28°28' W 016°15'0 0.0
2016-Nov-24 18:31N 28°28' W 016°15'0 0.0
2016-Nov-24 17:13N 28°28' W 016°15'0 0.0
2016-Nov-24 16:31N 28°28' W 016°15'0 0.0
2016-Nov-24 15:19N 28°28' W 016°15'0 0.0
2016-Nov-24 14:31N 28°28' W 016°15'0 0.0
2016-Nov-24 13:22N 28°28' W 016°15'0 0.0
2016-Nov-24 12:22N 28°28' W 016°15'0 0.0
2016-Nov-24 11:19N 28°28' W 016°15'0 0.0
2016-Nov-24 10:25N 28°28' W 016°15'0 0.0
2016-Nov-24 09:25N 28°28' W 016°15'0 0.0
2016-Nov-24 08:25N 28°28' W 016°15'0 0.0
2016-Nov-24 07:25N 28°28' W 016°15'0 0.0
2016-Nov-24 05:13N 28°28' W 016°15'0 0.0
2016-Nov-24 03:16N 28°28' W 016°15'0 0.0
2016-Nov-24 02:04N 28°28' W 016°15'0 0.0
2016-Nov-24 01:19N 28°28' W 016°15'0 0.0
2016-Nov-24 00:19N 28°28' W 016°15'0 0.0
2016-Nov-23 21:19N 28°28' W 016°15'0 0.0
2016-Nov-23 19:25N 28°28' W 016°15'0 0.0
2016-Nov-23 18:25N 28°28' W 016°15'0 0.0
2016-Nov-23 17:28N 28°28' W 016°15'0 0.0
2016-Nov-23 16:25N 28°28' W 016°15'0 0.0
2016-Nov-23 15:28N 28°28' W 016°15'0 0.0
2016-Nov-23 14:31N 28°28' W 016°15'0 0.0
2016-Nov-23 13:31N 28°28' W 016°15'  
Track history (hours):
 
Tides and Currents Weather Stations Pressure Air Temp Water Temp Dewpoint Dewpoint Depression Visibility Wind Speed Wind Dir Waves Ship Positions

Thomson Majesty

Last reported at 2016-Dec-03 13:27 UTC. Time now 2016-Dec-03 13:43 UTC.
Position N 28°08' W 015°25'.

Length 207 m; draft 6.2 m.

Type: Ship. MMSI: 248124000.

Date/timePositionNaut miles runAvg speedWind from/ knotsBaromVisibWave heightAir tempDewpointWater temp
2016-Dec-03 13:27N 28°08' W 015°25'0 0.0
2016-Dec-03 12:27N 28°08' W 015°25'0 0.0
2016-Dec-03 11:27N 28°08' W 015°25'0 0.0
2016-Dec-03 10:24N 28°08' W 015°25'0 0.0
2016-Dec-03 09:30N 28°08' W 015°25'0 0.0
2016-Dec-03 08:30N 28°08' W 015°25'0 0.0
2016-Dec-03 07:33N 28°08' W 015°25'6 5.6
2016-Dec-03 06:33N 28°12' W 015°21'1110.6
2016-Dec-03 05:33N 28°22' W 015°17'1110.9
2016-Dec-03 04:33N 28°28' W 015°27'1110.7
2016-Dec-03 03:33N 28°34' W 015°38'1110.6
2016-Dec-03 02:33N 28°28' W 015°47'1010.3
2016-Dec-03 01:33N 28°24' W 015°59'1211.8
2016-Dec-03 00:33N 28°28' W 016°11'3 2.5
2016-Dec-02 23:23N 28°28' W 016°15'0 0.0
2016-Dec-02 21:26N 28°28' W 016°15'0 0.0
2016-Dec-02 18:29N 28°28' W 016°15'0 0.0
2016-Dec-02 17:29N 28°28' W 016°15'0 0.0
2016-Dec-02 16:32N 28°28' W 016°15'0 0.0
2016-Dec-02 15:32N 28°28' W 016°15'0 0.0
2016-Dec-02 14:32N 28°28' W 016°15'0 0.0
2016-Dec-02 13:32N 28°28' W 016°15'0 0.0
2016-Dec-02 12:32N 28°28' W 016°15'0 0.0
2016-Dec-02 11:32N 28°28' W 016°15'0 0.0
2016-Dec-02 10:32N 28°28' W 016°15'0 0.0
2016-Dec-02 09:23N 28°28' W 016°15'0 0.0
2016-Dec-02 08:23N 28°28' W 016°15'0 0.0
2016-Dec-02 07:23N 28°28' W 016°15'0 0.0
2016-Dec-02 06:26N 28°28' W 016°15'0 0.0
2016-Dec-02 05:26N 28°28' W 016°15'8 6.1
2016-Dec-02 04:08N 28°24' W 016°07'610.6
2016-Dec-02 03:33N 28°20' W 016°01'9 8.6
2016-Dec-02 02:33N 28°12' W 016°03'1111.1
2016-Dec-02 01:33N 28°03' W 016°11'1411.3
2016-Dec-02 00:17N 27°52' W 016°22'1011.1
2016-Dec-01 23:25N 27°47' W 016°31'  
2016-Nov-27 05:33N 29°02' W 015°42'10 9.9
2016-Nov-27 04:33N 28°53' W 015°38'9 9.5
2016-Nov-27 03:34N 28°44' W 015°35'10 9.7
2016-Nov-27 02:33N 28°35' W 015°31'10 9.9
2016-Nov-27 01:33N 28°25' W 015°27'9 8.5
2016-Nov-27 00:33N 28°17' W 015°24'1010.1
2016-Nov-26 23:34N 28°07' W 015°23'2 2.3
2016-Nov-26 22:32N 28°08' W 015°25'0 0.0
2016-Nov-26 21:32N 28°08' W 015°25'0 0.0
2016-Nov-26 20:32N 28°08' W 015°25'0 0.0
2016-Nov-26 19:32N 28°08' W 015°25'0 0.0
2016-Nov-26 18:32N 28°08' W 015°25'0 0.0
2016-Nov-26 17:32N 28°08' W 015°25'0 0.0
2016-Nov-26 16:32N 28°08' W 015°25'0 0.0
2016-Nov-26 15:32N 28°08' W 015°25'0 0.0
2016-Nov-26 14:32N 28°08' W 015°25'0 0.0
2016-Nov-26 13:32N 28°08' W 015°25'0 0.0
2016-Nov-26 12:32N 28°08' W 015°25'0 0.0
2016-Nov-26 11:32N 28°08' W 015°25'0 0.0
2016-Nov-26 10:32N 28°08' W 015°25'0 0.0
2016-Nov-26 09:32N 28°08' W 015°25'0 0.0
2016-Nov-26 08:32N 28°08' W 015°25'0 0.3
2016-Nov-26 07:33N 28°08' W 015°25'5 5.5
2016-Nov-26 06:33N 28°07' W 015°19'1312.9
2016-Nov-26 05:33N 28°20' W 015°17'1211.8
2016-Nov-26 04:33N 28°28' W 015°27'1212.5
2016-Nov-26 03:33N 28°34' W 015°39'1111.4
2016-Nov-26 02:33N 28°26' W 015°48'1010.1
2016-Nov-26 01:33N 28°23' W 015°59'1313.0
2016-Nov-26 00:33N 28°28' W 016°13'2 1.7
2016-Nov-25 23:28N 28°28' W 016°15'0 0.0
2016-Nov-25 22:31N 28°28' W 016°15'0 0.0
2016-Nov-25 20:28N 28°28' W 016°15'0 0.0
2016-Nov-25 19:31N 28°28' W 016°15'0 0.0
2016-Nov-25 18:16N 28°28' W 016°15'0 0.0
2016-Nov-25 17:22N 28°28' W 016°15'0 0.0
2016-Nov-25 15:22N 28°28' W 016°15'0 0.0
2016-Nov-25 14:25N 28°28' W 016°15'0 0.0
2016-Nov-25 13:25N 28°28' W 016°15'0 0.0
2016-Nov-25 12:25N 28°28' W 016°15'0 0.0
2016-Nov-25 11:25N 28°28' W 016°15'0 0.0
2016-Nov-25 10:25N 28°28' W 016°15'0 0.0
2016-Nov-25 09:28N 28°28' W 016°15'0 0.0
2016-Nov-25 08:31N 28°28' W 016°15'0 0.0
2016-Nov-25 07:31N 28°28' W 016°15'0 0.0
2016-Nov-25 02:19N 28°28' W 016°15'0 0.0
2016-Nov-25 01:19N 28°28' W 016°15'0 0.0
2016-Nov-24 20:28N 28°28' W 016°15'0 0.0
2016-Nov-24 19:10N 28°28' W 016°15'0 0.0
2016-Nov-24 18:31N 28°28' W 016°15'0 0.0
2016-Nov-24 17:13N 28°28' W 016°15'0 0.0
2016-Nov-24 16:31N 28°28' W 016°15'0 0.0
2016-Nov-24 15:19N 28°28' W 016°15'0 0.0
2016-Nov-24 14:31N 28°28' W 016°15'0 0.0
2016-Nov-24 13:22N 28°28' W 016°15'0 0.0
2016-Nov-24 12:22N 28°28' W 016°15'0 0.0
2016-Nov-24 11:19N 28°28' W 016°15'0 0.0
2016-Nov-24 10:25N 28°28' W 016°15'0 0.0
2016-Nov-24 09:25N 28°28' W 016°15'0 0.0
2016-Nov-24 08:25N 28°28' W 016°15'0 0.0
2016-Nov-24 07:25N 28°28' W 016°15'0 0.0
2016-Nov-24 05:13N 28°28' W 016°15'0 0.0
2016-Nov-24 03:16N 28°28' W 016°15'0 0.0
2016-Nov-24 02:04N 28°28' W 016°15'0 0.0
2016-Nov-24 01:19N 28°28' W 016°15'0 0.0
2016-Nov-24 00:19N 28°28' W 016°15'0 0.0
2016-Nov-23 21:19N 28°28' W 016°15'0 0.0
2016-Nov-23 19:25N 28°28' W 016°15'0 0.0
2016-Nov-23 18:25N 28°28' W 016°15'0 0.0
2016-Nov-23 17:28N 28°28' W 016°15'0 0.0
2016-Nov-23 16:25N 28°28' W 016°15'0 0.0
2016-Nov-23 15:28N 28°28' W 016°15'0 0.0
2016-Nov-23 14:31N 28°28' W 016°15'0 0.0
2016-Nov-23 13:31N 28°28' W 016°15'  

Dump ship's entire track history